createdAt,value
2022-10-04T00:03:56.292Z,7.6
2022-10-04T00:08:54.044Z,7
2022-10-04T00:13:51.927Z,6.9
2022-10-04T00:18:50.048Z,6.7
2022-10-04T00:23:48.105Z,6.8
2022-10-04T00:28:46.184Z,6.9
2022-10-04T00:33:44.966Z,7.1
2022-10-04T00:38:43.455Z,7.2
2022-10-04T00:43:41.654Z,7.4
2022-10-04T00:48:39.899Z,7.2
2022-10-04T00:53:37.815Z,6.8
2022-10-04T00:58:35.650Z,6.5
2022-10-04T01:03:33.516Z,6.2
2022-10-04T01:08:31.571Z,5.9
2022-10-04T01:13:29.324Z,5.8
2022-10-04T01:18:27.180Z,5.6
2022-10-04T01:23:25.153Z,5.3
2022-10-04T01:28:23.099Z,5.2
2022-10-04T01:33:20.924Z,5.2
2022-10-04T01:38:19.217Z,5.4
2022-10-04T01:43:17.533Z,5.6
2022-10-04T01:48:15.664Z,5.6
2022-10-04T01:53:13.979Z,5.9
2022-10-04T01:58:12.205Z,6.2
2022-10-04T02:03:10.443Z,6.3
2022-10-04T02:08:08.362Z,6.4
2022-10-04T02:13:06.478Z,6.4
2022-10-04T02:18:04.436Z,6.4
2022-10-04T02:23:02.512Z,6.3
2022-10-04T02:28:00.483Z,6.1
2022-10-04T02:32:58.455Z,6
2022-10-04T02:37:56.361Z,5.8
2022-10-04T02:42:54.197Z,5.7
2022-10-04T02:47:52.268Z,5.8
2022-10-04T02:52:50.252Z,5.7
2022-10-04T02:57:48.256Z,5.3
2022-10-04T03:02:46.286Z,5.1
2022-10-04T03:07:44.209Z,4.9
2022-10-04T03:12:42.269Z,5
2022-10-04T03:17:40.537Z,5.2
2022-10-04T03:22:38.809Z,5.3
2022-10-04T03:27:36.950Z,5.6
2022-10-04T03:32:35.331Z,5.7
2022-10-04T03:37:33.346Z,5.6
2022-10-04T03:42:31.379Z,5.4
2022-10-04T03:47:29.407Z,5.4
2022-10-04T03:52:27.224Z,5.1
2022-10-04T03:57:25.225Z,4.9
2022-10-04T04:02:23.297Z,4.7
2022-10-04T04:07:21.105Z,4.3
2022-10-04T04:12:19.152Z,4.3
2022-10-04T04:17:17.150Z,4.2
2022-10-04T04:22:15.553Z,4.2
2022-10-04T04:27:13.716Z,4.2
2022-10-04T04:32:12.003Z,4.2
2022-10-04T04:37:10.054Z,4.1
2022-10-04T04:42:08.186Z,4.2
2022-10-04T04:47:06.337Z,4.2
2022-10-04T04:52:04.538Z,4.3
2022-10-04T04:57:02.717Z,4.4
2022-10-04T05:02:01.072Z,4.5
2022-10-04T05:07:00.142Z,5
2022-10-04T05:11:59.041Z,6.3
2022-10-04T05:16:57.360Z,6
2022-10-04T05:21:56.032Z,6.9
2022-10-04T05:26:57.629Z,10.7
2022-10-04T05:31:58.288Z,13.6
2022-10-04T05:36:55.474Z,12.6
2022-10-04T05:41:56.855Z,15.1
2022-10-04T05:46:52.628Z,12.8
2022-10-04T05:51:52.049Z,15
2022-10-04T05:56:49.080Z,13.4
2022-10-04T06:01:46.836Z,12.8
2022-10-04T06:06:44.384Z,13
2022-10-04T06:11:42.850Z,13.1
2022-10-04T06:16:41.249Z,13.5
2022-10-04T06:21:39.251Z,13.3
2022-10-04T06:26:37.310Z,13.4
2022-10-04T06:31:35.707Z,14
2022-10-04T06:36:34.312Z,14
2022-10-04T06:41:32.529Z,14.1
2022-10-04T06:46:30.844Z,14.8
2022-10-04T06:51:29.497Z,15.5
2022-10-04T06:56:28.002Z,15.8
2022-10-04T07:01:26.207Z,15.7
2022-10-04T07:06:24.023Z,15.9
2022-10-04T07:11:22.672Z,16.8
2022-10-04T07:16:21.824Z,17.9
2022-10-04T07:21:20.750Z,18.8
2022-10-04T07:26:19.180Z,19
2022-10-04T07:31:16.792Z,18.3
2022-10-04T07:36:15.906Z,17.8
2022-10-04T07:41:12.357Z,17.7
2022-10-04T07:46:10.226Z,17.3
2022-10-04T07:51:08.170Z,18.2
2022-10-04T07:56:08.165Z,21.1
2022-10-04T08:01:08.533Z,23.5
2022-10-04T08:06:08.439Z,24.1
2022-10-04T08:11:08.101Z,27.7
2022-10-04T08:16:10.906Z,31.4
2022-10-04T08:21:06.413Z,27.9
2022-10-04T08:26:06.042Z,32.9
2022-10-04T08:31:05.142Z,30.7
2022-10-04T08:35:59.703Z,27.8
2022-10-04T08:40:55.774Z,27.2
2022-10-04T08:45:54.615Z,27.8
2022-10-04T08:50:56.092Z,33.6
2022-10-04T08:55:56.760Z,33.9
2022-10-04T09:00:54.303Z,35.7
2022-10-04T09:05:51.474Z,31.2
2022-10-04T09:10:44.033Z,25.5
2022-10-04T09:15:39.620Z,24
2022-10-04T09:20:39.759Z,22.1
2022-10-04T09:25:32.786Z,21
2022-10-04T09:30:29.851Z,20.6
2022-10-04T09:35:32.943Z,30.5
2022-10-04T09:40:39.012Z,35.2
2022-10-04T09:45:31.578Z,28.5
2022-10-04T09:50:26.252Z,25.4
2022-10-04T09:55:22.525Z,24.3
2022-10-04T10:00:20.859Z,25.6
2022-10-04T10:05:17.928Z,23.3
2022-10-04T10:10:15.040Z,23.7
2022-10-04T10:15:17.774Z,27.8
2022-10-04T10:20:13.459Z,24.5
2022-10-04T10:25:09.445Z,22.7
2022-10-04T10:30:07.497Z,23.6
2022-10-04T10:35:05.690Z,23
2022-10-04T10:40:03.340Z,22.5
2022-10-04T10:45:01.596Z,22.9
2022-10-04T10:49:59.650Z,23.1
2022-10-04T10:54:58.109Z,23.4
2022-10-04T10:59:56.499Z,23.2
2022-10-04T11:04:54.485Z,23.3
2022-10-04T11:09:53.180Z,23.9
2022-10-04T11:14:52.274Z,25.2
2022-10-04T11:19:51.184Z,26
2022-10-04T11:24:49.146Z,25.2
2022-10-04T11:29:46.571Z,24.7
2022-10-04T11:34:44.135Z,24.1
2022-10-04T11:39:44.431Z,25.6
2022-10-04T11:44:40.912Z,25
2022-10-04T11:49:38.099Z,24.4
2022-10-04T11:54:35.406Z,23.3
2022-10-04T11:59:36.734Z,28.4
2022-10-04T12:04:33.826Z,26
2022-10-04T12:09:31.177Z,25.1
2022-10-04T12:14:28.304Z,24.5
2022-10-04T12:19:25.668Z,24.5
2022-10-04T12:24:24.919Z,26.1
2022-10-04T12:29:24.686Z,27.8
2022-10-04T12:34:24.408Z,31.1
2022-10-04T12:39:23.595Z,29
2022-10-04T12:44:17.770Z,26.1
2022-10-04T12:49:17.624Z,26.5
2022-10-04T12:54:12.473Z,23
2022-10-04T12:59:09.122Z,22.5
2022-10-04T13:04:06.738Z,22.1
2022-10-04T13:09:04.638Z,21.9
2022-10-04T13:14:02.202Z,21.1
2022-10-04T13:18:59.475Z,19.8
2022-10-04T13:23:56.973Z,19.7
2022-10-04T13:28:54.362Z,18.8
2022-10-04T13:33:51.975Z,18.2
2022-10-04T13:38:49.336Z,17.4
2022-10-04T13:43:47.305Z,17
2022-10-04T13:48:44.581Z,16.1
2022-10-04T13:53:42.275Z,15.7
2022-10-04T13:58:40.378Z,15.8
2022-10-04T14:03:38.421Z,15.2
2022-10-04T14:08:36.455Z,15.2
2022-10-04T14:13:34.691Z,15.3
2022-10-04T14:18:32.697Z,15.3
2022-10-04T14:23:30.820Z,15.2
2022-10-04T14:28:29.164Z,15.6
2022-10-04T14:33:27.190Z,15.4
2022-10-04T14:38:26.824Z,15.4
2022-10-04T14:43:22.890Z,14.7
2022-10-04T14:48:20.331Z,14.1
2022-10-04T14:53:17.739Z,13.6
2022-10-04T14:58:15.485Z,12.9
2022-10-04T15:03:13.518Z,12.5
2022-10-04T15:08:11.389Z,12.2
2022-10-04T15:13:11.390Z,12.2
2022-10-04T15:18:07.574Z,12.1
2022-10-04T15:23:05.709Z,12
2022-10-04T15:28:03.365Z,11.8
2022-10-04T15:33:01.269Z,11.5
2022-10-04T15:37:59.076Z,10.9
2022-10-04T15:42:56.767Z,10.6
2022-10-04T15:47:54.452Z,10.1
2022-10-04T15:52:52.308Z,9.6
2022-10-04T15:57:50.036Z,9.2
2022-10-04T16:02:47.758Z,8.6
2022-10-04T16:07:45.651Z,8.2
2022-10-04T16:12:43.583Z,7.9
2022-10-04T16:17:41.492Z,7.7
2022-10-04T16:22:39.486Z,7.4
2022-10-04T16:27:37.238Z,7.2
2022-10-04T16:32:35.165Z,7
2022-10-04T16:37:33.070Z,6.7
2022-10-04T16:42:31.159Z,6.6
2022-10-04T16:47:29.152Z,6.4
2022-10-04T16:52:27.191Z,6.3
2022-10-04T16:57:25.379Z,6.2
2022-10-04T17:02:23.422Z,5.9
2022-10-04T17:07:21.352Z,5.8
2022-10-04T17:12:19.526Z,5.6
2022-10-04T17:17:17.831Z,5.5
2022-10-04T17:22:15.962Z,5.3
2022-10-04T17:27:13.974Z,5.1
2022-10-04T17:32:16.285Z,5.1
2022-10-04T17:37:09.959Z,5
2022-10-04T17:42:08.064Z,4.9
2022-10-04T17:47:08.658Z,4.9
2022-10-04T17:52:04.284Z,4.9
2022-10-04T17:57:02.464Z,4.8
2022-10-04T18:02:00.599Z,4.8
2022-10-04T18:06:58.582Z,4.7
2022-10-04T18:11:56.778Z,4.7
2022-10-04T18:16:54.971Z,4.7
2022-10-04T18:21:53.040Z,4.6
2022-10-04T18:26:54.554Z,4.5
2022-10-04T18:31:49.138Z,4.6
2022-10-04T18:36:47.440Z,4.6
2022-10-04T18:41:45.105Z,4.5
2022-10-04T18:46:43.505Z,4.5
2022-10-04T18:51:41.408Z,4.5
2022-10-04T18:56:39.518Z,4.5
2022-10-04T19:01:37.750Z,4.5
2022-10-04T19:06:35.808Z,4.5
2022-10-04T19:11:34.149Z,4.4
2022-10-04T19:16:32.554Z,4.4
2022-10-04T19:21:30.562Z,4.4
2022-10-04T19:26:32.743Z,4.4
2022-10-04T19:31:27.173Z,4.5
2022-10-04T19:36:25.494Z,4.6
2022-10-04T19:41:23.664Z,4.5
2022-10-04T19:46:21.814Z,4.5
2022-10-04T19:51:19.827Z,4.4
2022-10-04T19:56:17.500Z,4.4
2022-10-04T20:01:14.257Z,4.4
2022-10-04T20:06:12.562Z,4.4
2022-10-04T20:11:10.551Z,4.4
2022-10-04T20:16:08.659Z,4.3
2022-10-04T20:21:06.593Z,4.2
2022-10-04T20:26:04.732Z,4.2
2022-10-04T20:31:02.880Z,4.1
2022-10-04T20:36:00.941Z,4.1
2022-10-04T20:40:59.097Z,4.2
2022-10-04T20:45:57.335Z,4.1
2022-10-04T20:50:55.178Z,4
2022-10-04T20:55:53.262Z,3.9
2022-10-04T21:00:51.253Z,3.7
2022-10-04T21:05:53.146Z,3.8
2022-10-04T21:10:47.087Z,3.7
2022-10-04T21:15:45.024Z,3.6
2022-10-04T21:20:42.981Z,3.6
2022-10-04T21:25:41.046Z,3.6
2022-10-04T21:30:38.992Z,3.5
2022-10-04T21:35:36.925Z,3.5
2022-10-04T21:40:34.802Z,3.5
2022-10-04T21:45:32.865Z,3.4
2022-10-04T21:50:31.000Z,3.4
2022-10-04T21:55:29.051Z,3.4
2022-10-04T22:00:27.101Z,3.4
2022-10-04T22:05:25.346Z,3.3
2022-10-04T22:10:23.417Z,3.3
2022-10-04T22:15:21.604Z,3.5
2022-10-04T22:20:19.713Z,3.4
2022-10-04T22:25:17.810Z,3.3
2022-10-04T22:30:15.913Z,3.2
2022-10-04T22:35:13.938Z,3
2022-10-04T22:40:12.131Z,3.1
2022-10-04T22:45:10.116Z,3
2022-10-04T22:50:08.204Z,3
2022-10-04T22:55:06.304Z,2.9
2022-10-04T23:00:04.358Z,2.9
2022-10-04T23:05:02.442Z,2.9
2022-10-04T23:10:00.580Z,2.8
2022-10-04T23:14:58.770Z,2.8
2022-10-04T23:19:56.699Z,2.7
2022-10-04T23:24:54.752Z,2.7
2022-10-04T23:29:52.739Z,2.7
2022-10-04T23:34:55.626Z,2.6
2022-10-04T23:39:48.763Z,2.5
2022-10-04T23:44:46.818Z,2.5
2022-10-04T23:49:44.938Z,2.4
2022-10-04T23:54:43.099Z,2.4
2022-10-04T23:59:41.217Z,2.3
